Time;durP1;ratioP1;P1;durP2;ratioP2;P2;SDS_P1;SDS_P2;PMS_P1;PMS_P2;Temp;Humidity;BMP_temperature;BMP_pressure;BME280_temperature;BME280_humidity;BME280_pressure;Samples;Min_cycle;Max_cycle;Signal;HPM_P1;HPM_P2
2022/03/30 00:01:46;;;;;;;11.10;2.17;;;24.50;99.90;;;;;;5009867;28;20048;-67
2022/03/30 00:04:13;;;;;;;11.80;2.92;;;24.70;99.90;;;;;;5008137;28;20109;-66
2022/03/30 00:06:40;;;;;;;10.40;2.85;;;24.70;99.90;;;;;;5010960;28;20154;-65
2022/03/30 00:09:07;;;;;;;8.70;2.13;;;24.70;99.90;;;;;;5010945;28;20116;-64
2022/03/30 00:11:34;;;;;;;8.05;2.25;;;25.00;99.90;;;;;;5010239;28;20061;-69
2022/03/30 00:14:01;;;;;;;8.32;2.05;;;25.20;99.90;;;;;;5010711;28;20026;-66
2022/03/30 00:16:33;;;;;;;7.28;1.80;;;25.30;99.90;;;;;;5010943;28;20853;-67
2022/03/30 00:19:01;;;;;;;9.70;2.10;;;25.50;99.90;;;;;;5011074;28;20105;-66
2022/03/30 00:21:30;;;;;;;9.13;2.00;;;25.60;99.90;;;;;;5010810;28;20018;-65
2022/03/30 00:24:00;;;;;;;7.35;1.70;;;25.70;99.90;;;;;;5010869;28;20050;-65
2022/03/30 00:26:27;;;;;;;8.40;2.22;;;25.40;99.90;;;;;;5010732;28;20488;-69
2022/03/30 00:28:54;;;;;;;4.63;1.77;;;25.40;99.90;;;;;;5011010;28;20030;-67
2022/03/30 00:31:21;;;;;;;10.00;2.10;;;25.40;99.90;;;;;;5014347;28;20042;-67
2022/03/30 00:33:51;;;;;;;6.93;2.28;;;25.50;99.90;;;;;;5020420;28;20068;-70
2022/03/30 00:36:19;;;;;;;9.27;2.22;;;25.80;99.90;;;;;;5019960;28;20483;-67
2022/03/30 00:38:46;;;;;;;7.07;1.80;;;25.70;99.90;;;;;;5011534;28;20041;-66
2022/03/30 00:41:13;;;;;;;9.05;1.98;;;25.40;99.90;;;;;;5016101;28;20026;-66
2022/03/30 00:43:40;;;;;;;6.07;1.70;;;24.90;99.90;;;;;;5010336;28;20105;-66
2022/03/30 00:46:09;;;;;;;4.97;1.90;;;25.10;99.90;;;;;;5010875;28;20022;-64
2022/03/30 00:48:36;;;;;;;5.93;1.55;;;25.40;99.90;;;;;;5018053;28;20052;-70
2022/03/30 00:51:06;;;;;;;7.78;1.83;;;25.50;99.90;;;;;;5012174;28;20373;-68
2022/03/30 00:53:35;;;;;;;4.95;1.88;;;25.50;99.90;;;;;;5012789;28;20481;-66
2022/03/30 00:56:03;;;;;;;5.88;1.80;;;25.70;99.90;;;;;;5022146;28;20026;-67
2022/03/30 00:58:31;;;;;;;6.03;2.28;;;26.00;99.90;;;;;;5017307;28;20029;-65
2022/03/30 01:00:59;;;;;;;5.63;2.22;;;26.20;99.90;;;;;;5012030;28;20018;-67
2022/03/30 01:03:26;;;;;;;5.28;1.60;;;26.10;99.90;;;;;;5012544;28;20030;-70
2022/03/30 01:05:52;;;;;;;9.95;2.50;;;25.90;99.90;;;;;;5010785;28;20022;-70
2022/03/30 01:08:19;;;;;;;7.15;1.98;;;25.60;99.90;;;;;;5009804;28;20060;-71
2022/03/30 01:10:47;;;;;;;5.60;1.92;;;25.60;99.90;;;;;;5011014;28;20026;-67
2022/03/30 01:13:14;;;;;;;6.30;2.03;;;26.10;99.90;;;;;;5009735;28;20408;-67
2022/03/30 01:15:41;;;;;;;6.57;2.10;;;26.70;99.90;;;;;;5025416;28;20037;-67
2022/03/30 01:18:08;;;;;;;6.65;2.15;;;26.80;99.90;;;;;;5016943;28;20047;-69
2022/03/30 01:20:35;;;;;;;5.05;2.05;;;26.40;99.90;;;;;;5018397;28;20021;-71
2022/03/30 01:23:03;;;;;;;7.82;2.25;;;25.80;99.90;;;;;;5023772;28;20388;-65
2022/03/30 01:25:31;;;;;;;6.22;2.03;;;25.40;99.90;;;;;;5016668;28;20542;-68
2022/03/30 01:27:59;;;;;;;7.32;2.08;;;25.00;99.90;;;;;;5017482;28;20026;-66
2022/03/30 01:33:11;;;;;;;6.88;2.05;;;25.10;99.90;;;;;;5019190;28;20160;-67
2022/03/30 01:35:40;;;;;;;6.15;2.08;;;25.20;99.90;;;;;;5019961;28;20038;-66
2022/03/30 01:38:07;;;;;;;12.52;2.45;;;25.20;99.90;;;;;;5015018;28;20049;-69
2022/03/30 01:40:35;;;;;;;7.78;2.70;;;25.30;99.90;;;;;;5022235;28;20049;-67
2022/03/30 01:43:03;;;;;;;9.73;2.35;;;25.30;99.90;;;;;;5024635;28;20029;-67
2022/03/30 01:45:30;;;;;;;5.00;2.05;;;25.30;99.90;;;;;;5021160;28;20021;-67
2022/03/30 01:47:59;;;;;;;5.22;2.28;;;25.50;99.90;;;;;;5013875;28;20026;-70
2022/03/30 01:50:29;;;;;;;8.68;2.47;;;25.80;99.90;;;;;;5018248;28;20101;-69
2022/03/30 01:52:56;;;;;;;9.73;2.20;;;26.00;99.90;;;;;;5017699;28;20030;-69
2022/03/30 01:55:23;;;;;;;9.13;2.38;;;26.30;99.90;;;;;;5014890;28;20599;-67
2022/03/30 01:57:50;;;;;;;6.90;2.13;;;26.30;99.90;;;;;;5021588;28;20026;-66
2022/03/30 02:00:18;;;;;;;10.63;2.50;;;26.10;99.90;;;;;;5014840;28;20494;-70
2022/03/30 02:02:46;;;;;;;7.70;2.53;;;25.50;99.90;;;;;;5013990;28;20041;-68
2022/03/30 02:05:13;;;;;;;5.97;2.08;;;24.90;99.90;;;;;;5018802;28;20036;-72
2022/03/30 02:07:40;;;;;;;7.28;2.42;;;24.50;99.90;;;;;;5017648;28;20026;-68
2022/03/30 02:10:09;;;;;;;11.27;2.85;;;24.30;99.90;;;;;;5022346;28;20113;-71
2022/03/30 02:12:37;;;;;;;4.78;2.10;;;24.30;99.90;;;;;;5025810;28;20045;-69
2022/03/30 02:15:06;;;;;;;8.32;3.33;;;24.50;99.90;;;;;;5019851;28;20112;-71
2022/03/30 02:17:33;;;;;;;6.13;2.50;;;24.70;99.90;;;;;;5014278;28;20512;-69
2022/03/30 02:20:00;;;;;;;9.70;2.55;;;24.80;99.90;;;;;;5024488;28;20018;-68
2022/03/30 02:22:27;;;;;;;11.60;2.88;;;25.00;99.90;;;;;;5017320;28;20067;-68
2022/03/30 02:24:54;;;;;;;9.75;2.53;;;25.10;99.90;;;;;;5020796;28;20029;-69
2022/03/30 02:27:22;;;;;;;6.78;2.15;;;25.20;99.90;;;;;;5017966;28;20036;-67
2022/03/30 02:29:54;;;;;;;7.20;2.58;;;25.30;99.90;;;;;;5014815;28;20084;-68
2022/03/30 02:32:22;;;;;;;7.63;2.30;;;25.50;99.90;;;;;;5020960;28;20110;-66
2022/03/30 02:34:49;;;;;;;8.70;2.88;;;25.70;99.90;;;;;;5014139;28;20057;-65
2022/03/30 02:37:17;;;;;;;9.05;2.70;;;26.00;99.90;;;;;;5014179;28;20121;-68
2022/03/30 02:39:44;;;;;;;7.13;2.10;;;26.40;99.90;;;;;;5013870;28;20018;-68
2022/03/30 02:42:12;;;;;;;7.53;2.40;;;26.50;99.90;;;;;;5018703;28;20769;-69
2022/03/30 02:44:39;;;;;;;9.45;2.10;;;27.00;99.90;;;;;;5014015;28;20030;-68
2022/03/30 02:47:07;;;;;;;5.90;2.60;;;27.50;99.90;;;;;;5013309;28;20389;-68
2022/03/30 02:49:34;;;;;;;8.25;2.42;;;27.40;99.90;;;;;;5021223;28;20049;-68
2022/03/30 02:52:01;;;;;;;10.05;2.75;;;27.00;99.90;;;;;;5015136;28;20034;-68
2022/03/30 02:54:28;;;;;;;7.28;2.30;;;27.00;99.90;;;;;;5025784;28;20028;-68
2022/03/30 02:56:55;;;;;;;11.18;2.70;;;27.20;99.90;;;;;;5028250;28;20030;-68
2022/03/30 02:59:22;;;;;;;5.90;2.10;;;26.90;99.90;;;;;;5020698;28;20022;-68
2022/03/30 03:01:49;;;;;;;4.70;1.60;;;26.70;99.90;;;;;;5013668;28;20092;-68
2022/03/30 03:04:16;;;;;;;9.85;2.47;;;26.70;99.90;;;;;;5029857;28;20030;-68
2022/03/30 03:06:43;;;;;;;6.30;2.13;;;26.60;99.90;;;;;;5025083;28;20026;-67
2022/03/30 03:09:11;;;;;;;4.55;2.03;;;26.80;99.90;;;;;;5020168;28;20018;-67
2022/03/30 03:11:38;;;;;;;8.52;2.38;;;26.90;99.90;;;;;;5012590;28;20144;-67
2022/03/30 03:14:07;;;;;;;8.50;1.70;;;27.30;99.90;;;;;;5020272;28;20041;-68
2022/03/30 03:16:34;;;;;;;7.30;1.92;;;27.40;99.90;;;;;;5024908;28;20033;-68
2022/03/30 03:19:02;;;;;;;7.38;2.30;;;27.60;99.90;;;;;;5015629;28;20028;-67
2022/03/30 03:21:29;;;;;;;7.15;1.85;;;27.40;99.90;;;;;;5015451;28;20021;-67
2022/03/30 03:23:59;;;;;;;8.40;1.85;;;26.60;99.90;;;;;;5012777;28;20101;-68
2022/03/30 03:26:26;;;;;;;3.67;1.40;;;26.40;99.90;;;;;;5011241;28;20045;-68
2022/03/30 03:28:53;;;;;;;5.28;2.50;;;26.20;99.90;;;;;;5011744;28;20064;-67
2022/03/30 03:31:20;;;;;;;5.40;1.48;;;26.00;99.90;;;;;;5019164;28;20108;-68
2022/03/30 03:33:47;;;;;;;6.85;1.65;;;26.00;99.90;;;;;;5012111;28;20473;-67
2022/03/30 03:36:14;;;;;;;8.27;1.75;;;25.90;99.90;;;;;;5012026;28;20484;-69
2022/03/30 03:38:41;;;;;;;5.32;1.42;;;25.90;99.90;;;;;;5026764;28;20021;-67
2022/03/30 03:41:08;;;;;;;2.60;1.23;;;26.20;99.90;;;;;;5031854;28;20084;-68
2022/03/30 03:43:36;;;;;;;2.83;1.50;;;26.70;99.90;;;;;;5012726;28;20025;-67
2022/03/30 03:46:03;;;;;;;3.30;1.50;;;27.00;99.90;;;;;;5018171;28;20273;-67
2022/03/30 03:48:33;;;;;;;3.25;1.38;;;27.30;99.90;;;;;;5012105;28;20064;-67
2022/03/30 03:51:00;;;;;;;5.32;1.20;;;27.70;99.90;;;;;;5032361;28;20029;-68
2022/03/30 03:53:27;;;;;;;3.95;0.98;;;28.30;99.90;;;;;;5013776;28;20022;-67
2022/03/30 03:55:54;;;;;;;3.33;1.00;;;28.60;99.90;;;;;;5024876;28;20105;-67
2022/03/30 03:58:21;;;;;;;2.45;0.80;;;29.10;99.90;;;;;;5031836;28;20026;-67
2022/03/30 04:00:48;;;;;;;0.80;0.60;;;29.10;99.90;;;;;;5020840;28;20461;-67
2022/03/30 04:03:15;;;;;;;2.67;0.52;;;28.70;99.90;;;;;;5019446;28;20014;-67
2022/03/30 04:05:42;;;;;;;3.67;1.00;;;28.80;99.90;;;;;;5025780;28;20049;-67
2022/03/30 04:08:10;;;;;;;1.33;0.70;;;29.00;99.90;;;;;;5025539;28;20033;-67
2022/03/30 04:10:38;;;;;;;1.58;0.70;;;28.90;99.90;;;;;;5013522;28;20021;-67
2022/03/30 04:13:06;;;;;;;1.90;0.75;;;28.80;99.90;;;;;;5020781;28;20017;-69
2022/03/30 04:15:34;;;;;;;2.45;0.77;;;28.50;99.90;;;;;;5020321;28;20084;-69
2022/03/30 04:18:03;;;;;;;3.40;0.90;;;28.20;99.90;;;;;;5017498;28;20030;-70
2022/03/30 04:20:31;;;;;;;2.63;0.73;;;28.10;99.90;;;;;;5013044;28;20057;-66
2022/03/30 04:22:58;;;;;;;2.13;0.80;;;28.20;99.90;;;;;;5010901;28;20468;-68
2022/03/30 04:25:25;;;;;;;3.60;0.80;;;28.30;99.90;;;;;;5011070;28;20017;-66
2022/03/30 04:27:53;;;;;;;3.20;0.90;;;28.00;99.90;;;;;;5011115;28;20025;-66
2022/03/30 04:30:22;;;;;;;4.05;0.70;;;27.60;99.90;;;;;;5010720;28;20025;-69
2022/03/30 04:32:49;;;;;;;2.00;0.63;;;27.60;99.90;;;;;;5015553;28;20015;-65
2022/03/30 04:35:27;;;;;;;4.10;0.80;;;27.60;99.90;;;;;;5012600;28;20029;-66
2022/03/30 04:37:55;;;;;;;2.53;0.70;;;27.40;99.90;;;;;;5010937;28;20041;-66
2022/03/30 04:40:24;;;;;;;3.35;0.93;;;27.10;99.90;;;;;;5011399;28;20088;-67
2022/03/30 04:42:51;;;;;;;5.93;1.25;;;26.90;99.90;;;;;;5017688;28;20020;-62
2022/03/30 04:45:19;;;;;;;3.78;1.02;;;26.90;99.90;;;;;;5010726;28;20033;-63
2022/03/30 04:47:46;;;;;;;3.08;0.80;;;27.00;99.90;;;;;;5015698;28;20022;-64
2022/03/30 04:50:13;;;;;;;1.83;0.80;;;27.10;99.90;;;;;;5024138;28;20022;-64
2022/03/30 04:52:41;;;;;;;2.65;0.90;;;27.10;99.90;;;;;;5024687;28;20545;-64
2022/03/30 04:55:09;;;;;;;3.58;0.85;;;27.10;99.90;;;;;;5026047;28;20128;-65
2022/03/30 04:57:37;;;;;;;3.05;0.73;;;27.00;99.90;;;;;;5029830;28;20017;-74
2022/03/30 05:00:08;;;;;;;1.35;0.60;;;26.90;99.90;;;;;;5027029;28;20029;-73
2022/03/30 05:02:36;;;;;;;3.78;0.75;;;26.70;99.90;;;;;;5021398;28;20407;-71
2022/03/30 05:05:04;;;;;;;3.08;0.75;;;26.60;99.90;;;;;;5020304;28;20100;-75
2022/03/30 05:07:31;;;;;;;1.95;0.80;;;26.20;99.90;;;;;;5014944;28;20022;-75
2022/03/30 05:09:59;;;;;;;1.67;0.80;;;26.10;99.90;;;;;;5022000;28;20507;-74
2022/03/30 05:12:26;;;;;;;1.70;0.57;;;26.00;99.90;;;;;;5023207;28;20053;-68
2022/03/30 05:14:53;;;;;;;4.20;0.70;;;26.00;99.90;;;;;;5025745;28;20034;-70
2022/03/30 05:17:20;;;;;;;1.30;0.80;;;25.80;99.90;;;;;;5022164;28;20026;-73
2022/03/30 05:19:48;;;;;;;0.80;0.50;;;25.90;99.90;;;;;;5021270;28;20064;-65
2022/03/30 05:22:18;;;;;;;2.45;0.90;;;26.00;99.90;;;;;;5019958;28;20018;-67
2022/03/30 05:24:45;;;;;;;2.58;1.23;;;26.30;99.90;;;;;;5016074;28;20478;-66
2022/03/30 05:27:12;;;;;;;1.77;1.20;;;26.20;99.90;;;;;;5022904;28;20387;-64
2022/03/30 05:29:40;;;;;;;2.00;0.95;;;25.80;99.90;;;;;;5031533;28;20528;-64
2022/03/30 05:32:07;;;;;;;1.58;1.02;;;25.10;99.90;;;;;;5028856;28;20503;-66
2022/03/30 05:34:34;;;;;;;3.92;1.40;;;24.80;99.90;;;;;;5020052;28;20029;-66
2022/03/30 05:37:01;;;;;;;3.17;1.30;;;24.40;99.90;;;;;;5022503;28;20384;-65
2022/03/30 05:39:29;;;;;;;1.73;1.35;;;24.20;99.90;;;;;;5023538;28;20022;-66
2022/03/30 05:41:56;;;;;;;2.70;1.98;;;24.30;99.90;;;;;;5014499;28;20022;-66
2022/03/30 05:44:24;;;;;;;3.45;1.58;;;24.70;99.90;;;;;;5017096;28;20013;-63
2022/03/30 05:46:53;;;;;;;3.80;1.52;;;24.90;99.90;;;;;;5029227;28;20515;-63
2022/03/30 05:49:20;;;;;;;4.68;1.80;;;25.30;99.90;;;;;;5023994;28;20110;-61
2022/03/30 05:51:47;;;;;;;4.30;1.50;;;25.60;99.90;;;;;;5027835;28;20021;-61
2022/03/30 05:54:14;;;;;;;2.53;1.42;;;26.00;99.90;;;;;;5026107;28;20030;-61
2022/03/30 05:59:34;;;;;;;5.20;1.30;;;26.10;99.90;;;;;;5024058;28;20087;-63
2022/03/30 06:02:02;;;;;;;6.15;1.40;;;25.90;99.90;;;;;;5016726;28;20036;-63
2022/03/30 06:04:29;;;;;;;4.15;1.25;;;26.00;99.90;;;;;;5022230;28;20538;-63
2022/03/30 06:06:56;;;;;;;3.25;1.20;;;25.60;99.90;;;;;;5022819;28;20033;-62
2022/03/30 06:09:24;;;;;;;5.20;1.35;;;25.30;99.90;;;;;;5023770;28;20100;-62
2022/03/30 06:11:51;;;;;;;3.75;1.38;;;25.40;99.90;;;;;;5026607;28;20024;-62
2022/03/30 06:14:18;;;;;;;4.35;1.10;;;25.60;99.90;;;;;;5018932;28;20064;-62
2022/03/30 06:16:46;;;;;;;2.97;1.45;;;25.80;99.90;;;;;;5027680;28;20030;-61
2022/03/30 06:19:13;;;;;;;2.60;1.08;;;25.90;99.90;;;;;;5023812;28;20028;-62
2022/03/30 06:21:42;;;;;;;3.65;1.35;;;26.00;99.90;;;;;;5026908;28;20059;-62
2022/03/30 06:24:13;;;;;;;3.83;1.17;;;25.80;99.90;;;;;;5029344;28;20025;-65
2022/03/30 06:26:41;;;;;;;8.95;1.52;;;25.60;99.90;;;;;;5018940;28;20480;-66
2022/03/30 06:29:09;;;;;;;1.83;1.02;;;25.60;99.90;;;;;;5020590;28;20020;-64
2022/03/30 06:31:36;;;;;;;2.88;1.38;;;25.40;99.90;;;;;;5020673;28;20120;-64
2022/03/30 06:34:04;;;;;;;5.35;2.15;;;25.10;99.90;;;;;;5023997;28;20028;-64
2022/03/30 06:36:33;;;;;;;3.88;1.55;;;24.80;99.90;;;;;;5023281;28;20042;-65
2022/03/30 06:39:01;;;;;;;3.00;1.30;;;24.60;99.90;;;;;;5024872;28;20030;-65
2022/03/30 06:41:32;;;;;;;5.00;1.30;;;24.50;99.90;;;;;;5028384;28;20021;-65
2022/03/30 06:44:02;;;;;;;2.13;1.08;;;24.30;99.90;;;;;;5025890;28;20146;-66
2022/03/30 06:46:37;;;;;;;1.83;0.93;;;24.10;99.90;;;;;;5024048;28;20056;-64
2022/03/30 06:49:05;;;;;;;2.72;1.02;;;24.00;99.90;;;;;;5023621;28;20390;-66
2022/03/30 06:51:32;;;;;;;2.25;0.98;;;23.70;99.90;;;;;;5021466;28;20104;-65
2022/03/30 06:54:02;;;;;;;2.50;1.13;;;23.40;99.90;;;;;;5021705;28;20030;-63
2022/03/30 06:56:29;;;;;;;3.50;1.60;;;23.10;99.90;;;;;;5022063;28;20018;-64
2022/03/30 06:58:57;;;;;;;3.22;1.02;;;22.70;99.90;;;;;;5021917;28;20030;-64
2022/03/30 07:01:24;;;;;;;2.88;1.17;;;22.50;99.90;;;;;;5019515;28;20034;-63
2022/03/30 07:03:52;;;;;;;2.88;1.08;;;22.10;99.90;;;;;;5020804;28;20144;-65
2022/03/30 07:06:23;;;;;;;1.85;1.00;;;21.90;99.90;;;;;;5020414;28;20116;-63
2022/03/30 07:11:37;;;;;;;2.60;1.15;;;21.40;99.90;;;;;;5023471;28;20041;-64
2022/03/30 07:14:05;;;;;;;1.67;1.10;;;21.20;99.90;;;;;;5021168;28;20030;-67
2022/03/30 07:16:34;;;;;;;4.35;1.60;;;21.10;99.90;;;;;;5020562;28;20083;-66
2022/03/30 07:19:01;;;;;;;1.55;1.45;;;21.00;99.90;;;;;;5015878;28;20627;-66
2022/03/30 07:21:28;;;;;;;2.20;1.42;;;20.90;99.90;;;;;;5015923;28;20033;-67
2022/03/30 07:23:56;;;;;;;2.50;1.60;;;20.80;99.90;;;;;;5021373;28;20056;-67
2022/03/30 07:26:24;;;;;;;3.08;1.23;;;20.70;99.90;;;;;;5016253;28;20075;-65
2022/03/30 07:28:52;;;;;;;6.90;1.42;;;20.70;99.90;;;;;;5017732;28;20404;-65
2022/03/30 07:31:21;;;;;;;4.30;1.42;;;20.60;99.90;;;;;;5017701;28;21330;-65
2022/03/30 07:33:48;;;;;;;3.33;1.33;;;20.50;99.90;;;;;;5018370;28;20613;-65
2022/03/30 07:36:15;;;;;;;2.30;1.70;;;20.50;99.90;;;;;;5020334;28;20080;-66
2022/03/30 07:38:44;;;;;;;5.15;2.10;;;20.40;99.90;;;;;;5023658;28;20068;-66
2022/03/30 07:41:11;;;;;;;1.42;1.33;;;20.40;99.90;;;;;;5021772;28;20037;-62
2022/03/30 07:43:41;;;;;;;2.25;1.92;;;20.30;99.90;;;;;;5023306;28;20404;-69
2022/03/30 07:46:13;;;;;;;3.22;2.30;;;20.40;99.90;;;;;;5023954;28;20032;-66
2022/03/30 07:48:42;;;;;;;2.25;1.98;;;20.40;99.90;;;;;;4329411;28;10000799;-68
2022/03/30 07:51:12;;;;;;;2.45;1.65;;;20.30;99.90;;;;;;5021100;28;20679;-64
2022/03/30 07:53:42;;;;;;;3.33;2.20;;;20.30;99.90;;;;;;5022261;28;20423;-67
2022/03/30 07:56:09;;;;;;;3.05;2.00;;;20.30;99.90;;;;;;5022391;28;20109;-62
2022/03/30 07:58:36;;;;;;;2.30;1.70;;;20.30;99.90;;;;;;5021772;28;20452;-62
2022/03/30 08:01:03;;;;;;;2.03;1.80;;;20.30;99.90;;;;;;5021896;28;20442;-63
2022/03/30 08:03:30;;;;;;;2.47;1.77;;;20.30;99.90;;;;;;5019122;28;20040;-67
2022/03/30 08:05:57;;;;;;;3.90;2.88;;;20.30;99.90;;;;;;5022511;28;20037;-67
2022/03/30 08:08:24;;;;;;;4.20;2.50;;;20.30;99.90;;;;;;5026076;28;20040;-68
2022/03/30 08:10:51;;;;;;;2.20;1.83;;;20.40;99.90;;;;;;5023790;28;20076;-67
2022/03/30 08:13:18;;;;;;;2.47;1.90;;;20.40;99.90;;;;;;5021668;28;20025;-67
2022/03/30 08:15:45;;;;;;;3.35;1.90;;;20.40;99.90;;;;;;5019087;28;20037;-66
2022/03/30 08:18:12;;;;;;;1.58;1.30;;;20.40;99.90;;;;;;5019092;28;20504;-63
2022/03/30 08:23:25;;;;;;;1.85;1.30;;;20.40;99.90;;;;;;5019291;28;20585;-63
2022/03/30 08:25:52;;;;;;;3.13;1.30;;;20.50;99.90;;;;;;5020464;28;20029;-65
2022/03/30 08:28:18;;;;;;;2.22;1.02;;;20.40;99.90;;;;;;5020199;28;20040;-62
2022/03/30 08:30:49;;;;;;;1.50;1.33;;;20.40;99.90;;;;;;5023620;28;20188;-64
2022/03/30 08:33:23;;;;;;;1.25;1.15;;;20.40;99.90;;;;;;5022607;28;20025;-63
2022/03/30 08:35:51;;;;;;;1.45;1.05;;;20.40;99.90;;;;;;5017881;28;20033;-65
2022/03/30 08:38:21;;;;;;;2.92;1.00;;;20.40;99.90;;;;;;5016673;28;20045;-63
2022/03/30 08:40:56;;;;;;;1.23;1.10;;;20.40;99.90;;;;;;5014075;28;20080;-64
2022/03/30 08:43:24;;;;;;;1.30;1.08;;;20.40;99.90;;;;;;5026913;28;20072;-64
2022/03/30 08:45:51;;;;;;;1.30;1.00;;;20.30;99.90;;;;;;5019102;28;20039;-65
2022/03/30 08:48:21;;;;;;;3.03;1.00;;;20.30;99.90;;;;;;5015013;28;20442;-63
2022/03/30 08:50:50;;;;;;;2.17;1.00;;;20.30;99.90;;;;;;5025283;28;20479;-64
2022/03/30 08:53:18;;;;;;;2.95;1.10;;;20.30;99.90;;;;;;5013669;28;20268;-64
2022/03/30 08:55:45;;;;;;;1.50;1.30;;;20.40;99.90;;;;;;5017721;28;20029;-65
2022/03/30 08:58:13;;;;;;;2.28;1.20;;;20.40;99.90;;;;;;5019590;28;20029;-63
2022/03/30 09:00:40;;;;;;;1.80;1.05;;;20.30;99.90;;;;;;5017112;28;20036;-64
2022/03/30 09:03:08;;;;;;;0.80;0.80;;;20.30;99.90;;;;;;5015009;28;20075;-64
2022/03/30 09:05:39;;;;;;;1.48;1.02;;;20.30;99.90;;;;;;5015051;28;20295;-61
2022/03/30 09:08:12;;;;;;;1.07;0.97;;;20.30;99.90;;;;;;5014756;28;20038;-65
2022/03/30 09:10:42;;;;;;;0.90;0.90;;;20.30;99.90;;;;;;5017067;28;20087;-64
2022/03/30 09:13:10;;;;;;;1.85;0.90;;;20.30;99.90;;;;;;5018038;28;20087;-64
2022/03/30 09:15:38;;;;;;;1.83;1.45;;;20.30;99.90;;;;;;5019259;28;20042;-65
2022/03/30 09:18:07;;;;;;;2.40;1.17;;;20.30;99.90;;;;;;5018282;28;20026;-65
2022/03/30 09:20:37;;;;;;;1.10;1.00;;;20.20;99.90;;;;;;5018828;28;20036;-64
2022/03/30 09:23:05;;;;;;;1.17;1.00;;;20.20;99.90;;;;;;5019253;28;20014;-67
2022/03/30 09:25:34;;;;;;;1.17;1.00;;;20.20;99.90;;;;;;5019834;28;20041;-65
2022/03/30 09:28:02;;;;;;;2.17;0.80;;;20.20;99.90;;;;;;5018398;28;20038;-64
2022/03/30 09:30:30;;;;;;;5.78;1.25;;;20.20;99.90;;;;;;5018870;28;20029;-65
2022/03/30 09:32:59;;;;;;;4.85;1.13;;;20.20;99.90;;;;;;5018400;28;20026;-66
2022/03/30 09:35:38;;;;;;;1.83;1.10;;;20.20;99.90;;;;;;5017417;28;20087;-65
2022/03/30 09:38:09;;;;;;;1.23;1.10;;;20.10;99.90;;;;;;5021091;28;20104;-64
2022/03/30 09:40:44;;;;;;;2.47;1.45;;;20.10;99.90;;;;;;5022028;28;20025;-65
2022/03/30 09:43:41;;;;;;;2.50;1.02;;;20.00;99.90;;;;;;5020378;28;20026;-64
2022/03/30 09:46:13;;;;;;;1.50;1.15;;;19.90;99.90;;;;;;5020508;28;20033;-66
2022/03/30 09:48:53;;;;;;;1.77;1.20;;;19.70;99.90;;;;;;5021615;28;20079;-65
2022/03/30 09:51:22;;;;;;;2.22;1.70;;;19.50;99.90;;;;;;5020163;28;20029;-65
2022/03/30 09:53:49;;;;;;;2.63;1.70;;;19.40;99.90;;;;;;5022769;28;20103;-66
2022/03/30 09:56:17;;;;;;;2.55;2.00;;;19.30;99.90;;;;;;5021618;28;20085;-66
2022/03/30 09:58:45;;;;;;;3.33;1.98;;;19.20;99.90;;;;;;5021417;28;20029;-65
2022/03/30 10:01:12;;;;;;;2.83;1.52;;;19.20;99.90;;;;;;5023031;28;20025;-65
2022/03/30 10:03:50;;;;;;;9.77;2.05;;;19.20;99.90;;;;;;5021052;28;20456;-65
2022/03/30 10:06:21;;;;;;;4.50;1.98;;;19.20;99.90;;;;;;5023689;28;20108;-65
2022/03/30 10:08:51;;;;;;;3.08;2.75;;;19.20;99.90;;;;;;5024422;28;20033;-64
2022/03/30 10:11:20;;;;;;;4.40;2.83;;;19.20;99.90;;;;;;5023207;28;20487;-66
2022/03/30 10:13:50;;;;;;;2.92;1.67;;;19.20;99.90;;;;;;5021064;28;20036;-62
2022/03/30 10:16:18;;;;;;;3.33;1.40;;;19.20;99.90;;;;;;5023415;28;20612;-63
2022/03/30 10:18:47;;;;;;;1.85;1.55;;;19.30;99.90;;;;;;5021651;28;20119;-65
2022/03/30 10:21:30;;;;;;;3.13;1.80;;;19.20;99.90;;;;;;5025318;28;20025;-67
2022/03/30 10:24:15;;;;;;;1.65;1.48;;;19.30;99.90;;;;;;5026009;28;20033;-66
2022/03/30 10:27:03;;;;;;;1.90;1.42;;;19.30;99.90;;;;;;5021181;28;20035;-66
2022/03/30 10:29:32;;;;;;;1.80;1.60;;;19.30;99.90;;;;;;5024252;28;20033;-64
2022/03/30 10:32:17;;;;;;;1.75;1.50;;;19.30;99.90;;;;;;5028730;28;20322;-65
2022/03/30 10:35:00;;;;;;;1.52;1.02;;;19.30;99.90;;;;;;5024134;28;20021;-65
2022/03/30 10:37:31;;;;;;;2.17;1.35;;;19.30;99.90;;;;;;5029525;22;20095;-68
2022/03/30 10:40:07;;;;;;;1.85;1.08;;;19.30;99.90;;;;;;5009169;28;20061;-65
2022/03/30 10:42:49;;;;;;;1.20;1.08;;;19.30;99.90;;;;;;5005645;28;20036;-65
2022/03/30 10:45:30;;;;;;;2.20;1.10;;;19.30;99.90;;;;;;5006407;28;20109;-65
2022/03/30 10:48:09;;;;;;;1.85;1.50;;;19.30;99.90;;;;;;5000988;28;20085;-65
2022/03/30 10:51:11;;;;;;;2.55;1.33;;;19.30;99.90;;;;;;5006476;28;20030;-66
2022/03/30 10:53:42;;;;;;;1.42;1.10;;;19.40;99.90;;;;;;5006094;28;20117;-65
2022/03/30 10:56:09;;;;;;;2.63;1.40;;;19.30;99.90;;;;;;5007289;28;20037;-64
2022/03/30 10:58:37;;;;;;;1.98;1.30;;;19.30;99.90;;;;;;5006235;28;20481;-63
2022/03/30 11:01:15;;;;;;;3.55;1.52;;;19.40;99.90;;;;;;5006630;28;20034;-65
2022/03/30 11:04:02;;;;;;;2.45;1.40;;;19.40;99.90;;;;;;5003397;28;20072;-66
2022/03/30 11:06:38;;;;;;;4.35;1.50;;;19.40;99.90;;;;;;4983700;28;20042;-65
2022/03/30 11:09:28;;;;;;;4.00;1.48;;;19.40;99.90;;;;;;4984147;28;20047;-64
2022/03/30 11:12:15;;;;;;;2.78;1.60;;;19.40;99.90;;;;;;4982168;28;20034;-67
2022/03/30 11:14:44;;;;;;;2.92;1.58;;;19.30;99.90;;;;;;4983433;28;20069;-64
2022/03/30 11:17:14;;;;;;;2.00;1.73;;;19.20;99.90;;;;;;4982807;28;20050;-67
2022/03/30 11:19:50;;;;;;;5.97;3.00;;;19.10;99.90;;;;;;4983916;28;20030;-65
2022/03/30 11:22:23;;;;;;;5.43;2.60;;;19.10;99.90;;;;;;4983497;28;20089;-68
2022/03/30 11:25:09;;;;;;;2.70;2.00;;;19.10;99.90;;;;;;4983471;28;20042;-64
2022/03/30 11:27:37;;;;;;;3.40;1.83;;;19.10;99.90;;;;;;4984257;28;20485;-67
2022/03/30 11:30:31;;;;;;;2.00;1.73;;;19.00;99.90;;;;;;4984168;28;20046;-66
2022/03/30 11:33:01;;;;;;;1.60;1.23;;;19.00;99.90;;;;;;4976143;28;20050;-67
2022/03/30 11:35:32;;;;;;;2.42;1.75;;;19.00;99.90;;;;;;4981550;28;20421;-67
2022/03/30 11:38:02;;;;;;;2.60;2.15;;;19.00;99.90;;;;;;4983427;28;20398;-67
2022/03/30 11:40:29;;;;;;;2.40;2.20;;;19.00;99.90;;;;;;4984911;28;20092;-66
2022/03/30 11:42:59;;;;;;;8.63;2.40;;;19.10;99.90;;;;;;4990963;28;20034;-67
2022/03/30 11:45:29;;;;;;;4.95;2.10;;;19.10;99.90;;;;;;5007444;28;20121;-68
2022/03/30 11:48:01;;;;;;;3.05;2.38;;;19.00;99.90;;;;;;5004876;28;20026;-67
2022/03/30 11:50:30;;;;;;;3.00;1.83;;;19.00;99.90;;;;;;5004431;28;20029;-66
2022/03/30 11:53:07;;;;;;;3.08;2.00;;;19.00;99.90;;;;;;5008789;28;20485;-66
2022/03/30 11:55:53;;;;;;;2.97;2.33;;;19.00;99.90;;;;;;5008332;28;20029;-67
2022/03/30 11:58:41;;;;;;;3.05;2.60;;;18.90;99.90;;;;;;5008182;28;20034;-67
2022/03/30 12:01:11;;;;;;;3.35;2.72;;;18.90;99.90;;;;;;5008243;28;20060;-67
2022/03/30 12:03:40;;;;;;;3.67;2.13;;;18.90;99.90;;;;;;5005660;28;20025;-66
2022/03/30 12:06:08;;;;;;;3.47;2.40;;;18.90;99.90;;;;;;5008185;28;20033;-67
2022/03/30 12:08:44;;;;;;;3.22;2.30;;;18.90;99.90;;;;;;5008935;28;20029;-66
2022/03/30 12:11:11;;;;;;;3.65;2.67;;;18.90;99.90;;;;;;5005292;28;20034;-66
2022/03/30 12:13:38;;;;;;;5.05;2.72;;;18.80;99.90;;;;;;5008778;28;20030;-66
2022/03/30 12:16:08;;;;;;;3.17;2.88;;;18.80;99.90;;;;;;5008306;28;20063;-66
2022/03/30 12:19:05;;;;;;;5.38;3.08;;;18.80;99.90;;;;;;5007668;28;20026;-66
2022/03/30 12:21:38;;;;;;;4.60;3.50;;;18.80;99.90;;;;;;4966185;28;20065;-66
2022/03/30 12:24:07;;;;;;;5.35;3.33;;;18.80;99.90;;;;;;4966428;28;20559;-65
2022/03/30 12:26:35;;;;;;;6.00;3.85;;;18.80;99.90;;;;;;4961913;28;20046;-66
2022/03/30 12:29:10;;;;;;;4.43;3.15;;;18.80;99.90;;;;;;4962537;28;20030;-66
2022/03/30 12:31:40;;;;;;;3.67;3.33;;;18.80;99.90;;;;;;4964286;28;20039;-66
2022/03/30 12:34:20;;;;;;;7.57;4.00;;;18.80;99.90;;;;;;4966777;28;20022;-66
2022/03/30 12:36:58;;;;;;;4.72;3.83;;;18.70;99.90;;;;;;4962342;28;20043;-68
2022/03/30 12:39:38;;;;;;;10.68;3.83;;;18.70;99.90;;;;;;4961168;28;20045;-69
2022/03/30 12:42:14;;;;;;;7.22;4.50;;;18.70;99.90;;;;;;4964080;28;20054;-67
2022/03/30 12:44:56;;;;;;;6.65;3.88;;;18.60;99.90;;;;;;4966938;28;20085;-68
2022/03/30 12:47:30;;;;;;;11.05;4.65;;;18.60;99.90;;;;;;4967629;28;20035;-69
2022/03/30 12:50:00;;;;;;;8.25;4.63;;;18.60;99.90;;;;;;4967210;28;20039;-67
2022/03/30 12:52:35;;;;;;;6.88;4.50;;;18.60;99.90;;;;;;4967713;28;20098;-67
2022/03/30 12:55:16;;;;;;;4.88;3.55;;;18.60;99.90;;;;;;4967845;28;20481;-67
2022/03/30 12:57:54;;;;;;;5.43;3.83;;;18.60;99.90;;;;;;4988888;28;20389;-67
2022/03/30 13:00:24;;;;;;;4.47;3.60;;;18.60;99.90;;;;;;5003851;28;20659;-66
2022/03/30 13:03:12;;;;;;;6.03;3.60;;;18.60;99.90;;;;;;5007832;28;20080;-66
2022/03/30 13:05:44;;;;;;;4.63;3.20;;;18.60;99.90;;;;;;5002067;28;20024;-66
2022/03/30 13:08:16;;;;;;;5.03;3.05;;;18.60;99.90;;;;;;5008099;28;20079;-67
2022/03/30 13:10:55;;;;;;;4.78;3.05;;;18.60;99.90;;;;;;5010779;28;20065;-66